Etusivu
METAR-TAF:

METAR-TAF

Lentoasemat :

Omak Airport

Omak, Washington, Yhdysvallat

Leveyspiiri: 48-27-51N, Pituuspiiri: 119-31-05W, korkeus merenpinnasta: 397 m

Tämänhetkinen sää

Tämä raportti tehtiin 40 minuuttia sitten, kello 02.05 UTC
Tuuli 4 kn etelästä/kaakosta
Lämpötila 1°C
Kosteus 93%
Ilmanpaine 1025 hPa
Näkyvyys: 16.1 km
Pilvistä 1700 ft:n korkeudessa

METAR: KOMK 110205Z AUTO 16004KT 10SM OVC017 01/00 A3026 RMK AO2 T00060000 $

Aika: 18:45 (02:45 UTC)


TAF: puuttuu

Säähavainnot ja -ennusteet yli 4000 lentoasemalta (METAR- ja TAF-raportit).

Käytössä olevat sääasemat on merkitty karttaan keltaisilla ja punaisilla pisteillä.

Aseta hiiri pisteen päälle nähdäksesi sääaseman nimen.

Klikkaa sitten nähdäksesi säähavainnot ja -ennusteet.

Kartan vaihtaminen: klikkaa mustalla rastilla varustettuja vihreitä pisteitä, niin voit zoomata sisään; viivalla varustettua vihreää pistettä, niin voit zoomata ulos tai vihreitä nuolia, niin pääset viereisille kartoille.


METAR-TAF: